Time;durP1;ratioP1;P1;durP2;ratioP2;P2;SDS_P1;SDS_P2;PMS_P1;PMS_P2;Temp;Humidity;BMP_temperature;BMP_pressure;BME280_temperature;BME280_humidity;BME280_pressure;Samples;Min_cycle;Max_cycle;Signal;HPM_P1;HPM_P2
2021/04/14 00:00:25;;;;;;;14.30;12.90;;;;;;;9.74;88.51;98342.47;5035146;28;20281;-89
2021/04/14 00:02:53;;;;;;;14.77;13.20;;;;;;;9.69;88.51;98330.59;5035025;28;20244;-88
2021/04/14 00:05:22;;;;;;;14.00;12.60;;;;;;;9.57;88.54;98326.19;5035243;28;20277;-89
2021/04/14 00:07:49;;;;;;;15.93;14.43;;;;;;;9.56;88.49;98327.97;5035110;28;20199;-89
2021/04/14 00:10:20;;;;;;;15.67;14.17;;;;;;;9.78;88.31;98337.88;5034856;28;20289;-89
2021/04/14 00:12:46;;;;;;;16.53;14.97;;;;;;;9.82;88.33;98354.25;5034831;28;20237;-90
2021/04/14 00:15:18;;;;;;;15.53;13.93;;;;;;;9.61;88.48;98352.13;5034765;28;20199;-89
2021/04/14 00:17:45;;;;;;;15.33;13.37;;;;;;;9.69;88.44;98362.94;5034755;28;20187;-90
2021/04/14 00:20:14;;;;;;;14.07;12.67;;;;;;;9.68;88.50;98365.69;5034939;28;20199;-90
2021/04/14 00:22:41;;;;;;;14.20;13.00;;;;;;;9.70;88.56;98367.28;5035094;28;20228;-91
2021/04/14 00:25:11;;;;;;;14.17;12.73;;;;;;;9.64;88.65;98364.22;5031992;28;20285;-89
2021/04/14 00:27:38;;;;;;;14.07;12.77;;;;;;;9.74;88.63;98358.25;5023721;28;20265;-88
2021/04/14 00:30:08;;;;;;;14.00;12.53;;;;;;;9.76;88.64;98358.97;5034269;28;20194;-88
2021/04/14 00:32:38;;;;;;;12.83;11.63;;;;;;;9.60;88.85;98346.97;5034663;28;20276;-88
2021/04/14 00:35:06;;;;;;;13.33;11.97;;;;;;;9.52;88.98;98344.84;5033976;28;20233;-87
2021/04/14 00:37:34;;;;;;;11.80;10.50;;;;;;;9.40;89.09;98330.75;5034133;28;20681;-89
2021/04/14 00:40:01;;;;;;;12.53;11.43;;;;;;;9.56;89.03;98343.72;5034372;28;20336;-89
2021/04/14 00:42:28;;;;;;;11.97;10.70;;;;;;;9.56;89.09;98341.09;5034110;28;20294;-89
2021/04/14 00:45:01;;;;;;;12.60;11.43;;;;;;;9.56;89.19;98350.72;5033986;28;20201;-89
2021/04/14 00:47:28;;;;;;;12.70;11.50;;;;;;;9.62;89.23;98360.81;5034063;28;20231;-91
2021/04/14 00:49:54;;;;;;;11.70;10.60;;;;;;;9.50;89.42;98346.75;5033681;28;20194;-90
2021/04/14 00:52:21;;;;;;;12.10;10.90;;;;;;;9.14;89.79;98324.56;5034092;28;20241;-90
2021/04/14 00:54:49;;;;;;;16.00;13.57;;;;;;;9.00;89.94;98304.47;5034129;28;20234;-91
2021/04/14 00:57:22;;;;;;;12.63;11.43;;;;;;;8.92;90.01;98298.88;5034150;28;20699;-91
2021/04/14 00:59:50;;;;;;;12.90;11.70;;;;;;;8.94;90.03;98299.63;5033885;28;20289;-89
2021/04/14 01:02:23;;;;;;;12.97;11.77;;;;;;;9.06;89.98;98303.25;5033539;28;20199;-89
2021/04/14 01:04:52;;;;;;;12.27;11.13;;;;;;;8.95;90.18;98303.09;5034099;28;20195;-91
2021/04/14 01:07:22;;;;;;;12.90;11.63;;;;;;;8.92;90.27;98295.41;5033605;28;20223;-90
2021/04/14 01:09:50;;;;;;;11.57;10.53;;;;;;;8.86;90.37;98288.78;5033992;28;20199;-90
2021/04/14 01:12:19;;;;;;;11.17;10.17;;;;;;;8.73;90.53;98272.19;5033715;28;20237;-90
2021/04/14 01:14:49;;;;;;;11.50;10.33;;;;;;;8.73;90.54;98270.38;5033716;28;20248;-90
2021/04/14 01:17:16;;;;;;;11.40;10.13;;;;;;;8.66;90.69;98276.09;5033210;28;20241;-90
2021/04/14 01:19:42;;;;;;;12.30;11.10;;;;;;;8.71;90.69;98266.19;5033663;28;20199;-91
2021/04/14 01:22:13;;;;;;;93.73;17.00;;;;;;;8.77;90.70;98273.66;5033574;28;20226;-90
2021/04/14 01:24:43;;;;;;;14.93;12.73;;;;;;;8.97;90.54;98273.22;5033415;28;20264;-90
2021/04/14 01:27:10;;;;;;;12.03;10.23;;;;;;;8.99;90.66;98283.59;5033385;28;20222;-91
2021/04/14 01:29:40;;;;;;;12.73;11.50;;;;;;;8.89;90.88;98280.72;5033595;28;20202;-87
2021/04/14 01:32:08;;;;;;;15.73;10.97;;;;;;;9.00;90.91;98286.09;5032851;28;20281;-90
2021/04/14 01:34:34;;;;;;;37.53;15.37;;;;;;;8.87;91.15;98284.38;5033727;28;20355;-92
2021/04/14 01:37:01;;;;;;;21.93;11.80;;;;;;;8.62;91.46;98270.22;5033524;28;20226;-91
2021/04/14 01:39:29;;;;;;;36.33;15.03;;;;;;;8.67;91.41;98255.03;5031989;28;20198;-90
2021/04/14 01:41:56;;;;;;;22.03;13.13;;;;;;;8.72;91.33;98262.59;5032802;28;20198;-91
2021/04/14 01:44:23;;;;;;;33.97;13.67;;;;;;;8.72;91.31;98254.75;5033266;28;20282;-90
2021/04/14 01:46:50;;;;;;;14.27;11.80;;;;;;;8.72;91.38;98260.81;5032999;28;20280;-91
2021/04/14 01:49:18;;;;;;;14.67;12.53;;;;;;;8.75;91.37;98255.38;5033481;28;20198;-92
2021/04/14 01:51:44;;;;;;;13.30;11.87;;;;;;;8.79;91.41;98250.78;5033250;28;20229;-93
2021/04/14 01:54:12;;;;;;;10.50;9.23;;;;;;;8.76;91.50;98243.13;5033207;28;20213;-92
2021/04/14 01:56:41;;;;;;;11.63;10.40;;;;;;;8.76;91.54;98251.84;5032897;28;20250;-92
2021/04/14 01:59:11;;;;;;;11.80;10.70;;;;;;;8.84;91.51;98248.72;5033298;28;20209;-91
2021/04/14 02:01:38;;;;;;;10.17;9.27;;;;;;;8.88;91.49;98238.88;5032899;28;20289;-92
2021/04/14 02:04:05;;;;;;;11.53;10.37;;;;;;;8.99;91.46;98229.34;5033023;28;20225;-92
2021/04/14 02:06:32;;;;;;;11.70;10.63;;;;;;;8.79;91.68;98217.53;5032948;28;20666;-92
2021/04/14 02:08:59;;;;;;;12.53;10.47;;;;;;;8.81;91.55;98201.72;5032808;28;20196;-92
2021/04/14 02:11:26;;;;;;;11.77;10.60;;;;;;;8.79;91.49;98193.09;5032788;28;20608;-91
2021/04/14 02:13:53;;;;;;;13.73;10.80;;;;;;;8.92;91.29;98188.75;5032962;28;20203;-91
2021/04/14 02:16:21;;;;;;;20.07;12.00;;;;;;;8.97;91.24;98188.44;5032898;28;20675;-92
2021/04/14 02:18:49;;;;;;;20.13;11.97;;;;;;;8.84;91.37;98184.97;5032902;28;20195;-91
2021/04/14 02:21:17;;;;;;;16.50;10.93;;;;;;;8.86;91.27;98194.38;5032620;28;20198;-92
2021/04/14 02:23:44;;;;;;;15.43;11.90;;;;;;;8.79;91.22;98193.09;5032864;28;20195;-91
2021/04/14 02:26:13;;;;;;;16.90;12.17;;;;;;;8.50;91.37;98179.28;5032666;28;20317;-90
2021/04/14 02:28:40;;;;;;;22.40;11.57;;;;;;;8.45;91.17;98163.00;5033234;28;20648;-91
2021/04/14 02:31:09;;;;;;;28.63;12.13;;;;;;;8.31;91.10;98161.22;5032580;28;20205;-91
2021/04/14 02:33:37;;;;;;;20.30;12.27;;;;;;;8.36;90.82;98158.34;5032861;28;20286;-91
2021/04/14 02:36:07;;;;;;;13.00;11.07;;;;;;;8.38;90.61;98161.72;5033049;28;20663;-91
2021/04/14 02:38:34;;;;;;;18.57;10.77;;;;;;;8.49;90.38;98175.81;5032606;28;20252;-91
2021/04/14 02:41:01;;;;;;;16.07;11.27;;;;;;;8.37;90.40;98165.25;5032749;28;20731;-92
2021/04/14 02:43:28;;;;;;;14.73;10.13;;;;;;;8.56;90.07;98165.78;5032584;28;20248;-91
2021/04/14 02:45:55;;;;;;;13.37;9.83;;;;;;;8.46;90.08;98164.69;5032447;28;20198;-92
2021/04/14 02:48:22;;;;;;;15.87;9.27;;;;;;;8.65;89.89;98178.28;5032476;28;20213;-91
2021/04/14 02:50:49;;;;;;;14.03;9.57;;;;;;;8.74;89.83;98192.56;5035379;28;20186;-91
2021/04/14 02:53:16;;;;;;;15.13;9.43;;;;;;;8.86;89.81;98209.28;5036443;28;20203;-91
2021/04/14 02:55:43;;;;;;;13.60;9.57;;;;;;;8.81;89.92;98202.56;5036226;28;20237;-92
2021/04/14 02:58:09;;;;;;;20.60;15.77;;;;;;;8.91;89.92;98201.97;5036476;28;20187;-91
2021/04/14 03:00:36;;;;;;;23.47;11.37;;;;;;;8.94;90.03;98223.59;5035804;28;20238;-91
2021/04/14 03:03:03;;;;;;;25.03;9.60;;;;;;;8.43;90.40;98199.78;5036619;28;20202;-92
2021/04/14 03:05:34;;;;;;;17.07;9.90;;;;;;;8.43;90.28;98193.72;5036013;28;20281;-91
2021/04/14 03:08:01;;;;;;;17.83;11.90;;;;;;;8.50;90.11;98189.75;5036120;28;20217;-91
2021/04/14 03:10:30;;;;;;;23.03;11.33;;;;;;;8.74;89.93;98209.16;5036287;28;20202;-90
2021/04/14 03:12:57;;;;;;;27.83;13.77;;;;;;;8.74;90.05;98219.63;5035969;28;20198;-91
2021/04/14 03:15:27;;;;;;;16.20;11.93;;;;;;;8.80;89.98;98219.25;5035848;28;20206;-92
2021/04/14 03:17:54;;;;;;;11.20;9.63;;;;;;;8.77;89.95;98213.34;5036006;28;20229;-92
2021/04/14 03:20:22;;;;;;;12.33;10.13;;;;;;;8.62;90.07;98201.22;5035752;28;20297;-89
2021/04/14 03:22:51;;;;;;;10.30;9.03;;;;;;;8.67;90.03;98207.88;5036055;28;20237;-90
2021/04/14 03:25:19;;;;;;;11.43;10.07;;;;;;;8.64;90.08;98200.19;5036251;28;20286;-92
2021/04/14 03:27:46;;;;;;;20.57;12.17;;;;;;;8.89;89.96;98216.94;5035552;28;20225;-91
2021/04/14 03:30:14;;;;;;;20.63;12.57;;;;;;;8.74;90.22;98224.03;5034902;28;20202;-90
2021/04/14 03:32:41;;;;;;;39.83;14.73;;;;;;;8.71;90.28;98214.59;5035815;28;20202;-91
2021/04/14 03:35:10;;;;;;;40.00;13.23;;;;;;;8.50;90.38;98201.06;5035615;28;20286;-91
2021/04/14 03:37:39;;;;;;;13.40;12.00;;;;;;;8.56;90.31;98198.06;5036676;28;20642;-90
2021/04/14 03:43:15;;;;;;;30.37;13.53;;;;;;;8.09;90.34;98151.28;4997260;28;20202;-91
2021/04/14 03:45:43;;;;;;;27.00;12.63;;;;;;;7.96;90.24;98142.50;5035156;28;20205;-92
2021/04/14 03:48:10;;;;;;;15.50;11.23;;;;;;;7.88;90.04;98144.78;5035289;28;20199;-91
2021/04/14 03:50:38;;;;;;;28.90;11.97;;;;;;;7.90;89.76;98141.13;5035326;28;20195;-92
2021/04/14 03:53:11;;;;;;;60.83;15.70;;;;;;;8.09;89.51;98161.75;5035050;28;20285;-90
2021/04/14 03:55:39;;;;;;;151.50;21.00;;;;;;;7.91;89.53;98157.69;5035238;28;20714;-91
2021/04/14 03:58:05;;;;;;;55.00;11.27;;;;;;;8.06;89.40;98175.03;5035378;28;20270;-92
2021/04/14 04:00:32;;;;;;;57.10;13.83;;;;;;;8.08;89.35;98189.72;5035157;28;20633;-91
2021/04/14 04:02:59;;;;;;;17.37;11.03;;;;;;;7.97;89.38;98186.13;5034467;28;20289;-90
2021/04/14 04:05:26;;;;;;;26.67;10.93;;;;;;;8.30;89.06;98204.94;5034777;28;20260;-90
2021/04/14 04:07:53;;;;;;;23.73;11.57;;;;;;;8.44;89.04;98229.44;5034776;28;20218;-89
2021/04/14 04:10:20;;;;;;;12.10;10.83;;;;;;;8.52;89.07;98235.03;5034896;28;20209;-90
2021/04/14 04:12:47;;;;;;;22.30;11.70;;;;;;;8.46;89.18;98227.59;5035123;28;20285;-91
2021/04/14 04:15:14;;;;;;;25.30;13.67;;;;;;;8.64;89.02;98241.28;5034672;28;20234;-90
2021/04/14 04:17:41;;;;;;;44.17;17.83;;;;;;;8.57;89.13;98251.31;5034594;28;20285;-91
2021/04/14 04:20:11;;;;;;;24.70;17.97;;;;;;;8.41;89.25;98235.72;5034748;28;20289;-90
2021/04/14 04:22:40;;;;;;;31.80;23.87;;;;;;;8.48;89.18;98230.94;5035127;28;20752;-91
2021/04/14 04:25:09;;;;;;;26.70;22.67;;;;;;;8.70;89.01;98239.13;5034235;28;20230;-88
2021/04/14 04:27:35;;;;;;;27.47;23.33;;;;;;;8.69;89.07;98247.91;5029899;28;20224;-90
2021/04/14 04:30:04;;;;;;;18.37;16.47;;;;;;;8.81;89.02;98249.75;5034460;28;20199;-90
2021/04/14 04:32:31;;;;;;;20.93;18.83;;;;;;;8.87;89.03;98259.03;5034432;28;20674;-90
2021/04/14 04:34:58;;;;;;;57.07;42.90;;;;;;;8.93;89.05;98263.00;5034241;28;20234;-92
2021/04/14 04:37:25;;;;;;;73.97;53.17;;;;;;;8.94;89.15;98276.03;5034293;28;20290;-89
2021/04/14 04:39:52;;;;;;;36.40;26.30;;;;;;;8.98;89.19;98279.31;5034252;28;20293;-90
2021/04/14 04:42:18;;;;;;;29.70;17.10;;;;;;;8.96;89.34;98286.41;5034150;28;20202;-90
2021/04/14 04:44:45;;;;;;;27.70;13.73;;;;;;;8.52;89.67;98262.13;5034204;28;20194;-92
2021/04/14 04:47:13;;;;;;;78.80;17.23;;;;;;;8.11;89.84;98222.75;5034194;28;20222;-90
2021/04/14 04:49:40;;;;;;;12.80;11.50;;;;;;;8.27;89.54;98233.94;5034690;28;20230;-91
2021/04/14 04:52:08;;;;;;;12.70;10.17;;;;;;;8.46;89.36;98253.78;5034518;28;20667;-92
2021/04/14 04:54:35;;;;;;;12.50;11.23;;;;;;;8.24;89.47;98257.72;5034388;28;20285;-94
2021/04/14 04:57:02;;;;;;;15.13;12.27;;;;;;;8.13;89.44;98241.81;5034091;28;20791;-95
2021/04/14 04:59:29;;;;;;;11.57;10.40;;;;;;;8.42;89.14;98258.38;5034171;28;20191;-95
2021/04/14 05:01:59;;;;;;;15.77;13.73;;;;;;;8.46;89.13;98259.88;5034304;28;20269;-95
2021/04/14 05:04:27;;;;;;;13.80;12.30;;;;;;;8.65;88.99;98275.25;5034069;28;20211;-94
2021/04/14 05:06:54;;;;;;;16.90;15.00;;;;;;;8.69;89.00;98275.91;5034065;28;20219;-95
2021/04/14 05:09:21;;;;;;;13.47;11.77;;;;;;;8.69;89.02;98287.22;5034343;28;20682;-94
2021/04/14 05:11:49;;;;;;;15.67;13.57;;;;;;;8.59;89.11;98280.91;5034007;28;20663;-92
2021/04/14 05:14:16;;;;;;;14.80;12.47;;;;;;;8.52;89.14;98279.59;5034194;28;20199;-93
2021/04/14 05:16:43;;;;;;;13.70;10.87;;;;;;;8.72;89.00;98286.19;5034201;28;20198;-93
2021/04/14 05:19:10;;;;;;;12.27;10.57;;;;;;;8.87;88.93;98292.25;5033958;28;20277;-93
2021/04/14 05:21:40;;;;;;;13.57;10.87;;;;;;;8.89;88.94;98296.47;5033997;28;20226;-92
2021/04/14 05:24:08;;;;;;;11.63;10.40;;;;;;;9.11;88.84;98308.19;5033862;28;20237;-92
2021/04/14 05:26:35;;;;;;;13.77;11.53;;;;;;;9.03;88.96;98317.38;5033563;28;20222;-91
2021/04/14 05:29:02;;;;;;;11.63;10.53;;;;;;;9.03;89.04;98319.16;5033813;28;20222;-91
2021/04/14 05:31:29;;;;;;;11.70;10.50;;;;;;;9.15;88.97;98317.56;5033573;28;20198;-91
2021/04/14 05:33:56;;;;;;;15.77;13.03;;;;;;;9.27;88.98;98322.81;5033555;28;20233;-91
2021/04/14 05:36:23;;;;;;;24.57;22.03;;;;;;;9.38;88.96;98327.38;5033524;28;20198;-91
2021/04/14 05:38:52;;;;;;;13.73;12.30;;;;;;;9.43;89.03;98337.59;5033672;28;20225;-91
2021/04/14 05:41:19;;;;;;;9.00;8.10;;;;;;;9.44;89.10;98339.25;5033375;28;20203;-92
2021/04/14 05:43:46;;;;;;;9.33;8.43;;;;;;;9.07;89.50;98331.16;5033265;28;20202;-93
2021/04/14 05:46:15;;;;;;;9.10;8.20;;;;;;;9.19;89.47;98338.25;5033420;28;20205;-90
2021/04/14 05:48:43;;;;;;;10.40;9.43;;;;;;;9.20;89.56;98344.31;5033330;28;20202;-91
2021/04/14 05:51:13;;;;;;;10.83;8.67;;;;;;;9.25;89.59;98353.59;5033127;28;20285;-91
2021/04/14 05:53:40;;;;;;;13.73;10.40;;;;;;;9.38;89.61;98355.41;5033436;28;20203;-92
2021/04/14 05:56:10;;;;;;;13.53;12.13;;;;;;;9.51;89.62;98364.16;5033131;28;20299;-91
2021/04/14 05:58:37;;;;;;;9.97;8.97;;;;;;;9.31;89.87;98352.34;5033407;28;20679;-92
2021/04/14 06:01:05;;;;;;;11.27;8.83;;;;;;;9.25;89.99;98353.59;5033511;28;20233;-92
2021/04/14 06:03:32;;;;;;;11.87;10.20;;;;;;;9.33;90.02;98352.25;5033012;28;20746;-90
2021/04/14 06:06:00;;;;;;;54.57;35.53;;;;;;;9.33;90.08;98350.47;5033223;28;20233;-91
2021/04/14 06:08:29;;;;;;;64.73;42.33;;;;;;;9.38;90.08;98351.00;5033370;28;20226;-91
2021/04/14 06:10:56;;;;;;;132.97;93.27;;;;;;;9.34;90.17;98346.06;5032971;28;20195;-91
2021/04/14 06:13:24;;;;;;;28.13;25.20;;;;;;;9.30;90.24;98342.78;5033064;28;20690;-92
2021/04/14 06:15:51;;;;;;;22.30;19.87;;;;;;;9.50;90.18;98358.06;5033096;28;20245;-91
2021/04/14 06:18:18;;;;;;;14.50;12.60;;;;;;;9.50;90.39;98360.69;5033192;28;20191;-92
2021/04/14 06:20:45;;;;;;;28.47;21.90;;;;;;;9.62;90.63;98374.78;5032821;28;20234;-91
2021/04/14 06:23:16;;;;;;;20.33;18.23;;;;;;;9.66;90.81;98368.38;5032994;28;20707;-91
2021/04/14 06:25:55;;;;;;;34.87;27.37;;;;;;;9.46;91.14;98361.00;5035749;28;20212;-91
2021/04/14 06:28:23;;;;;;;32.37;26.90;;;;;;;9.55;91.14;98359.56;5037118;28;20268;-92
2021/04/14 06:30:50;;;;;;;69.37;46.93;;;;;;;9.59;91.21;98354.00;5037192;28;20237;-91
2021/04/14 06:33:19;;;;;;;60.10;36.87;;;;;;;9.42;91.56;98349.88;5037208;28;20199;-91
2021/04/14 06:35:47;;;;;;;121.03;63.60;;;;;;;9.46;91.75;98350.50;5037060;28;20265;-91
2021/04/14 06:38:16;;;;;;;38.30;26.83;;;;;;;9.40;91.96;98340.41;5037182;28;20226;-91
2021/04/14 06:41:04;;;;;;;17.30;15.50;;;;;;;9.52;91.91;98340.47;5037267;28;20256;-92
2021/04/14 06:43:41;;;;;;;9.27;8.27;;;;;;;9.36;92.19;98324.03;5036708;28;20241;-92
2021/04/14 06:46:14;;;;;;;11.77;10.57;;;;;;;9.34;92.34;98325.91;5036051;28;20186;-92
2021/04/14 06:48:52;;;;;;;10.37;9.47;;;;;;;9.39;92.45;98318.56;5036804;28;20198;-92
2021/04/14 06:51:26;;;;;;;8.03;7.20;;;;;;;9.44;92.69;98320.88;5036648;28;20248;-94
2021/04/14 06:54:10;;;;;;;7.23;5.30;;;;;;;9.39;93.14;98317.75;5036621;28;20183;-92
2021/04/14 06:56:40;;;;;;;4.87;4.23;;;;;;;9.32;93.68;98317.31;5036471;28;20234;-94
2021/04/14 06:59:12;;;;;;;4.60;4.20;;;;;;;9.35;93.90;98317.09;5036433;28;20187;-92
2021/04/14 07:01:44;;;;;;;7.77;7.00;;;;;;;9.39;94.06;98312.50;5036319;28;20194;-93
2021/04/14 07:04:15;;;;;;;14.77;13.30;;;;;;;9.50;94.24;98315.25;5036424;28;20186;-91
2021/04/14 07:06:44;;;;;;;12.70;11.43;;;;;;;9.31;94.84;98293.75;5036250;28;20210;-92
2021/04/14 07:09:18;;;;;;;5.10;4.57;;;;;;;9.39;95.04;98287.09;5036368;28;20199;-91
2021/04/14 07:11:46;;;;;;;5.70;5.23;;;;;;;9.27;95.58;98272.13;5036595;28;20233;-92
2021/04/14 07:14:17;;;;;;;8.07;6.00;;;;;;;9.18;96.06;98257.84;5036236;28;20281;-92
2021/04/14 07:17:08;;;;;;;5.27;4.77;;;;;;;9.43;96.05;98256.22;5036073;28;20183;-91
2021/04/14 07:19:59;;;;;;;10.10;7.80;;;;;;;9.44;96.46;98237.72;5033943;28;20233;-93
2021/04/14 07:22:38;;;;;;;8.80;7.50;;;;;;;9.41;96.99;98210.84;5036103;28;20206;-92
2021/04/14 07:25:10;;;;;;;2.87;2.63;;;;;;;9.52;97.63;98188.22;5036104;28;20186;-92
2021/04/14 07:27:46;;;;;;;26.53;18.90;;;;;;;9.65;98.06;98179.47;5036039;28;20294;-91
2021/04/14 07:30:20;;;;;;;4.00;3.33;;;;;;;9.64;100.00;98164.66;5036072;28;20647;-91
2021/04/14 07:32:59;;;;;;;4.03;3.63;;;;;;;9.64;100.00;98125.28;5036025;28;20186;-92
2021/04/14 07:35:34;;;;;;;7.80;6.40;;;;;;;9.61;100.00;98068.59;5036345;28;20191;-91
2021/04/14 07:38:06;;;;;;;6.80;5.53;;;;;;;9.63;100.00;98034.31;5035104;28;20182;-92
2021/04/14 07:40:41;;;;;;;3.87;3.10;;;;;;;9.42;100.00;98002.56;5035684;28;20210;-91
2021/04/14 07:43:26;;;;;;;4.00;3.17;;;;;;;9.52;100.00;97993.97;5035743;28;20257;-91
2021/04/14 07:45:54;;;;;;;4.37;3.43;;;;;;;9.47;100.00;97984.72;5035677;28;20651;-91
2021/04/14 07:48:27;;;;;;;3.77;3.47;;;;;;;9.66;100.00;97989.47;5035666;28;20313;-91
2021/04/14 07:50:58;;;;;;;3.60;3.30;;;;;;;9.61;100.00;97979.31;5035596;28;20209;-91
2021/04/14 07:53:30;;;;;;;2.70;2.27;;;;;;;9.77;100.00;97979.91;5035604;28;20190;-91
2021/04/14 07:56:05;;;;;;;2.77;2.57;;;;;;;9.78;100.00;97970.22;5035116;28;20262;-91
2021/04/14 07:58:33;;;;;;;4.30;4.00;;;;;;;9.84;100.00;97943.53;5035571;28;20190;-90
2021/04/14 08:01:13;;;;;;;3.37;3.07;;;;;;;9.90;100.00;97915.94;5035691;28;20749;-91
2021/04/14 08:03:40;;;;;;;2.77;2.47;;;;;;;9.97;100.00;97885.66;5035613;28;20560;-92
2021/04/14 08:06:10;;;;;;;1.70;1.60;;;;;;;10.10;100.00;97860.13;5035440;28;20204;-91
2021/04/14 08:08:37;;;;;;;1.70;1.60;;;;;;;9.96;100.00;97808.66;5035555;28;20194;-93
2021/04/14 08:11:07;;;;;;;2.80;2.60;;;;;;;10.43;100.00;97785.78;5035035;28;20671;-92
2021/04/14 08:13:39;;;;;;;2.50;2.30;;;;;;;11.03;100.00;97744.16;5035732;28;20336;-92
2021/04/14 08:16:30;;;;;;;1.80;1.70;;;;;;;11.26;100.00;97610.69;5035289;28;20207;-92
2021/04/14 08:19:03;;;;;;;2.37;1.50;;;;;;;11.87;100.00;97460.53;5035283;28;20659;-92
2021/04/14 08:21:37;;;;;;;2.17;2.00;;;;;;;12.45;100.00;97327.88;5035037;28;20341;-91
2021/04/14 08:24:13;;;;;;;2.10;1.50;;;;;;;12.63;100.00;97189.97;5035433;28;20722;-93
2021/04/14 08:26:50;;;;;;;2.40;2.20;;;;;;;13.33;100.00;97106.47;5035407;28;20235;-91
2021/04/14 08:29:17;;;;;;;4.20;3.20;;;;;;;14.04;100.00;97041.94;5035384;28;20711;-92
2021/04/14 08:31:46;;;;;;;2.57;2.37;;;;;;;14.03;100.00;96975.03;5034931;28;20222;-93
2021/04/14 08:34:21;;;;;;;2.77;2.13;;;;;;;14.43;100.00;96911.75;5034952;28;20202;-91
2021/04/14 08:36:53;;;;;;;2.53;2.07;;;;;;;14.60;100.00;96878.19;5034483;28;20309;-91
2021/04/14 08:39:24;;;;;;;1.87;1.70;;;;;;;13.48;100.00;96826.84;5034696;28;20252;-92
2021/04/14 08:41:51;;;;;;;2.27;2.13;;;;;;;13.83;100.00;96814.31;5034663;28;20198;-91
2021/04/14 08:44:33;;;;;;;2.83;2.00;;;;;;;14.46;100.00;96805.63;5034474;28;20297;-92
2021/04/14 08:47:16;;;;;;;5.63;4.97;;;;;;;14.34;100.00;96791.09;5034009;28;20209;-91
2021/04/14 08:49:45;;;;;;;2.13;1.90;;;;;;;14.49;100.00;96782.31;5034421;28;20265;-92
2021/04/14 08:52:16;;;;;;;7.43;2.00;;;;;;;14.58;100.00;96766.44;5035214;28;20199;-91
2021/04/14 08:54:43;;;;;;;2.70;2.50;;;;;;;15.45;100.00;96764.47;5035561;28;20191;-90
2021/04/14 08:57:11;;;;;;;1.97;1.87;;;;;;;14.66;100.00;96743.41;5034109;28;20230;-91
2021/04/14 08:59:40;;;;;;;2.73;1.70;;;;;;;15.05;100.00;96736.44;5034560;28;20641;-92
2021/04/14 09:02:08;;;;;;;4.67;2.70;;;;;;;15.80;100.00;96735.75;5034387;28;20225;-92
2021/04/14 09:04:37;;;;;;;3.90;3.50;;;;;;;16.40;100.00;96732.94;5034091;28;20199;-91
2021/04/14 09:07:05;;;;;;;2.87;2.67;;;;;;;15.89;100.00;96713.44;5034164;28;20269;-91
2021/04/14 09:09:45;;;;;;;4.73;4.13;;;;;;;16.35;100.00;96716.75;5033913;28;20206;-91
2021/04/14 09:12:13;;;;;;;2.93;2.13;;;;;;;17.16;100.00;96687.50;5033882;28;20198;-92
2021/04/14 09:14:40;;;;;;;2.63;2.43;;;;;;;17.14;100.00;96660.28;5034153;28;20617;-92
2021/04/14 09:17:17;;;;;;;3.77;3.47;;;;;;;17.51;100.00;96661.03;5033779;28;20283;-90
2021/04/14 09:19:47;;;;;;;1.83;1.73;;;;;;;16.91;100.00;96649.06;5034305;28;20618;-90
2021/04/14 09:22:20;;;;;;;2.83;2.03;;;;;;;16.36;100.00;96640.66;5034296;28;20191;-90
2021/04/14 09:24:49;;;;;;;3.90;3.27;;;;;;;16.74;100.00;96649.28;5033642;28;20188;-91
2021/04/14 09:27:35;;;;;;;3.47;2.70;;;;;;;16.38;100.00;96639.47;5034042;28;20239;-89
2021/04/14 09:30:15;;;;;;;1.23;1.13;;;;;;;16.29;100.00;96629.13;5033607;28;20298;-91
2021/04/14 09:33:00;;;;;;;6.13;5.30;;;;;;;17.01;100.00;96634.44;5033911;28;20193;-91
2021/04/14 09:35:59;;;;;;;8.17;4.07;;;;;;;17.76;100.00;96625.03;5033665;28;20204;-90
2021/04/14 09:38:32;;;;;;;3.50;2.27;;;;;;;17.68;100.00;96611.06;5033857;28;20191;-91
2021/04/14 09:41:16;;;;;;;26.40;14.00;;;;;;;16.59;100.00;96608.66;5033408;28;20188;-91
2021/04/14 09:43:45;;;;;;;12.77;7.57;;;;;;;16.96;100.00;96606.81;5033547;28;20232;-89
2021/04/14 09:46:27;;;;;;;13.20;8.67;;;;;;;15.90;100.00;96601.94;5033279;28;20301;-90
2021/04/14 09:48:54;;;;;;;21.00;13.17;;;;;;;15.33;100.00;96601.69;5033534;28;20195;-90
2021/04/14 09:51:36;;;;;;;7.90;6.13;;;;;;;15.17;100.00;96607.94;5033392;28;20236;-90
2021/04/14 09:54:12;;;;;;;3.83;2.10;;;;;;;15.16;100.00;96601.81;5033198;28;20742;-90
2021/04/14 09:56:47;;;;;;;2.03;1.83;;;;;;;14.54;100.00;96598.50;5033211;28;20285;-90
2021/04/14 09:59:18;;;;;;;1.70;1.43;;;;;;;14.35;100.00;96600.56;5032587;28;20687;-90
2021/04/14 10:01:47;;;;;;;3.40;1.90;;;;;;;14.04;100.00;96609.28;5033214;28;20803;-90
2021/04/14 10:04:18;;;;;;;1.90;1.77;;;;;;;13.86;100.00;96619.28;5033051;28;20213;-89
2021/04/14 10:06:48;;;;;;;1.57;1.47;;;;;;;13.64;100.00;96601.50;5033220;28;20217;-90
2021/04/14 10:09:23;;;;;;;1.70;1.37;;;;;;;13.81;100.00;96608.38;5033515;28;20695;-89
2021/04/14 10:11:50;;;;;;;1.93;1.37;;;;;;;13.52;100.00;96601.88;5033045;28;20183;-89
2021/04/14 10:14:20;;;;;;;1.40;1.30;;;;;;;13.29;100.00;96600.91;5033172;28;20263;-90
2021/04/14 10:16:48;;;;;;;1.67;1.57;;;;;;;13.31;100.00;96610.31;5032850;28;20194;-90
2021/04/14 10:19:26;;;;;;;3.17;2.57;;;;;;;13.40;100.00;96612.94;5032943;28;20203;-89
2021/04/14 10:21:54;;;;;;;2.90;1.53;;;;;;;13.08;100.00;96620.69;5033117;28;20187;-90
2021/04/14 10:24:22;;;;;;;3.33;2.50;;;;;;;12.99;100.00;96616.44;5033257;28;20648;-91
2021/04/14 10:26:51;;;;;;;6.40;4.77;;;;;;;13.04;100.00;96634.41;5032861;28;20262;-93
2021/04/14 10:29:20;;;;;;;3.03;2.30;;;;;;;12.90;100.00;96637.69;5034073;28;20230;-96
2021/04/14 10:31:50;;;;;;;44.10;33.87;;;;;;;12.35;100.00;96673.34;5099147;23;20261;-96
2021/04/14 10:34:27;;;;;;;58.57;41.50;;;;;;;12.10;100.00;96718.03;5340508;22;20214;-96
2021/04/14 10:36:56;;;;;;;28.83;20.50;;;;;;;11.91;100.00;96755.13;5082992;22;20721;-96
2021/04/14 10:39:29;;;;;;;17.47;14.63;;;;;;;11.63;100.00;96770.19;5060153;28;20198;-96
2021/04/14 10:41:56;;;;;;;80.67;71.80;;;;;;;11.43;100.00;96791.44;5057625;28;20192;-96
2021/04/14 10:44:25;;;;;;;91.27;81.80;;;;;;;11.46;100.00;96827.16;5052568;28;20287;-95
2021/04/14 10:47:00;;;;;;;45.70;40.90;;;;;;;11.52;100.00;96863.41;5052733;28;20583;-96
2021/04/14 10:49:29;;;;;;;22.13;19.73;;;;;;;11.77;100.00;96897.88;5053053;28;20272;-94
2021/04/14 10:52:02;;;;;;;24.70;20.00;;;;;;;11.86;100.00;96912.81;5052656;28;20205;-94
2021/04/14 10:54:31;;;;;;;3.33;3.07;;;;;;;12.13;100.00;96948.78;5052436;28;20241;-94
2021/04/14 10:57:02;;;;;;;3.10;2.30;;;;;;;12.15;100.00;96991.59;5052780;28;20672;-94
2021/04/14 10:59:30;;;;;;;8.03;6.23;;;;;;;12.35;100.00;97021.28;5052543;28;20568;-93
2021/04/14 11:02:00;;;;;;;21.60;14.67;;;;;;;12.56;100.00;97047.34;5052669;28;20228;-93
2021/04/14 11:04:36;;;;;;;4.80;4.30;;;;;;;12.42;100.00;97077.69;5052691;28;20201;-93
2021/04/14 11:07:07;;;;;;;9.47;7.40;;;;;;;12.68;100.00;97108.56;5052429;28;20243;-93
2021/04/14 11:09:37;;;;;;;9.00;7.73;;;;;;;12.67;100.00;97101.66;5052621;28;20186;-93
2021/04/14 11:12:08;;;;;;;18.03;14.07;;;;;;;12.63;100.00;97100.31;5055913;28;20246;-93
2021/04/14 11:14:38;;;;;;;10.80;8.60;;;;;;;12.36;100.00;97096.75;5056601;28;20677;-92
2021/04/14 11:17:07;;;;;;;8.43;6.63;;;;;;;12.30;100.00;97087.63;5056525;28;20203;-93
2021/04/14 11:19:40;;;;;;;3.33;2.50;;;;;;;11.90;100.00;97061.66;5179978;22;20248;-96
2021/04/14 11:22:11;;;;;;;13.90;8.50;;;;;;;10.96;100.00;96998.59;5084541;28;20223;-95
2021/04/14 11:24:46;;;;;;;91.07;48.03;;;;;;;10.76;100.00;96966.25;5076839;28;20210;-95
2021/04/14 11:27:18;;;;;;;22.23;13.30;;;;;;;10.84;100.00;97003.19;5076259;28;20251;-96
2021/04/14 11:29:46;;;;;;;10.33;6.27;;;;;;;10.56;100.00;97017.19;5081825;28;20193;-96
2021/04/14 11:32:16;;;;;;;3.07;2.77;;;;;;;10.40;100.00;97036.19;5079364;28;20228;-96
2021/04/14 11:34:59;;;;;;;7.60;6.70;;;;;;;10.49;100.00;97053.72;5076137;28;20555;-96
2021/04/14 11:37:41;;;;;;;5.50;3.07;;;;;;;10.82;100.00;97073.50;5083402;28;20209;-96
2021/04/14 11:40:26;;;;;;;6.07;5.17;;;;;;;11.27;100.00;97106.25;5091882;28;20290;-96
2021/04/14 11:42:55;;;;;;;3.93;1.93;;;;;;;11.43;100.00;97135.44;5061270;28;20288;-96